sensor_id;sensor_type;location;lat;lon;timestamp;P1;durP1;ratioP1;P2;durP2;ratioP2
75062;SDS011;63981;51.052;13.754;2023-05-13T00:00:36;730.35;;;650.58;;
75062;SDS011;63981;51.052;13.754;2023-05-13T00:03:02;729.58;;;650.35;;
75062;SDS011;63981;51.052;13.754;2023-05-13T00:05:28;732.30;;;652.22;;
75062;SDS011;63981;51.052;13.754;2023-05-13T00:07:54;732.75;;;653.25;;
75062;SDS011;63981;51.052;13.754;2023-05-13T00:10:20;734.35;;;654.10;;
75062;SDS011;63981;51.052;13.754;2023-05-13T00:12:45;732.92;;;652.63;;
75062;SDS011;63981;51.052;13.754;2023-05-13T00:15:12;733.70;;;653.47;;
75062;SDS011;63981;51.052;13.754;2023-05-13T00:17:38;728.55;;;649.17;;
75062;SDS011;63981;51.052;13.754;2023-05-13T00:20:04;728.78;;;649.42;;
75062;SDS011;63981;51.052;13.754;2023-05-13T00:22:31;729.50;;;649.70;;
75062;SDS011;63981;51.052;13.754;2023-05-13T00:24:57;728.63;;;648.78;;
75062;SDS011;63981;51.052;13.754;2023-05-13T00:27:22;733.53;;;654.17;;
75062;SDS011;63981;51.052;13.754;2023-05-13T00:29:48;726.20;;;647.45;;
75062;SDS011;63981;51.052;13.754;2023-05-13T00:32:14;729.55;;;650.50;;
75062;SDS011;63981;51.052;13.754;2023-05-13T00:34:40;729.92;;;650.78;;
75062;SDS011;63981;51.052;13.754;2023-05-13T00:37:06;729.75;;;650.25;;
75062;SDS011;63981;51.052;13.754;2023-05-13T00:39:34;727.75;;;648.40;;
75062;SDS011;63981;51.052;13.754;2023-05-13T00:42:00;731.38;;;651.67;;
75062;SDS011;63981;51.052;13.754;2023-05-13T00:44:29;730.15;;;651.67;;
75062;SDS011;63981;51.052;13.754;2023-05-13T00:46:55;729.58;;;651.25;;
75062;SDS011;63981;51.052;13.754;2023-05-13T00:49:21;731.83;;;653.33;;
75062;SDS011;63981;51.052;13.754;2023-05-13T00:51:46;728.80;;;650.40;;
75062;SDS011;63981;51.052;13.754;2023-05-13T00:54:13;731.17;;;652.03;;
75062;SDS011;63981;51.052;13.754;2023-05-13T00:56:38;727.22;;;649.05;;
75062;SDS011;63981;51.052;13.754;2023-05-13T00:59:04;729.85;;;651.55;;
75062;SDS011;63981;51.052;13.754;2023-05-13T01:01:37;729.63;;;650.70;;
75062;SDS011;63981;51.052;13.754;2023-05-13T01:04:33;729.05;;;650.58;;
75062;SDS011;63981;51.052;13.754;2023-05-13T01:07:28;729.22;;;650.85;;
75062;SDS011;63981;51.052;13.754;2023-05-13T01:12:48;730.75;;;652.25;;
75062;SDS011;63981;51.052;13.754;2023-05-13T01:15:24;727.95;;;650.47;;
75062;SDS011;63981;51.052;13.754;2023-05-13T01:20:41;731.35;;;653.65;;
75062;SDS011;63981;51.052;13.754;2023-05-13T01:23:09;729.13;;;651.53;;
75062;SDS011;63981;51.052;13.754;2023-05-13T01:28:03;724.58;;;648.58;;
75062;SDS011;63981;51.052;13.754;2023-05-13T01:30:30;729.85;;;651.92;;
75062;SDS011;63981;51.052;13.754;2023-05-13T01:32:56;730.65;;;653.35;;
75062;SDS011;63981;51.052;13.754;2023-05-13T01:35:23;729.92;;;652.58;;
75062;SDS011;63981;51.052;13.754;2023-05-13T01:37:49;734.78;;;656.15;;
75062;SDS011;63981;51.052;13.754;2023-05-13T01:40:17;731.63;;;653.55;;
75062;SDS011;63981;51.052;13.754;2023-05-13T01:42:43;732.00;;;654.40;;
75062;SDS011;63981;51.052;13.754;2023-05-13T01:45:09;730.70;;;653.40;;
75062;SDS011;63981;51.052;13.754;2023-05-13T01:47:37;732.63;;;655.33;;
75062;SDS011;63981;51.052;13.754;2023-05-13T01:50:03;735.70;;;657.95;;
75062;SDS011;63981;51.052;13.754;2023-05-13T01:52:29;736.00;;;658.40;;
75062;SDS011;63981;51.052;13.754;2023-05-13T01:54:55;734.15;;;656.65;;
75062;SDS011;63981;51.052;13.754;2023-05-13T01:57:21;734.75;;;656.60;;
75062;SDS011;63981;51.052;13.754;2023-05-13T01:59:47;732.15;;;655.10;;
75062;SDS011;63981;51.052;13.754;2023-05-13T02:02:13;732.45;;;655.63;;
75062;SDS011;63981;51.052;13.754;2023-05-13T02:04:39;731.22;;;654.03;;
75062;SDS011;63981;51.052;13.754;2023-05-13T02:07:05;733.97;;;656.97;;
75062;SDS011;63981;51.052;13.754;2023-05-13T02:09:31;733.47;;;656.20;;
75062;SDS011;63981;51.052;13.754;2023-05-13T02:11:57;731.80;;;655.03;;
75062;SDS011;63981;51.052;13.754;2023-05-13T02:14:23;732.90;;;656.15;;
75062;SDS011;63981;51.052;13.754;2023-05-13T02:16:49;740.67;;;662.65;;
75062;SDS011;63981;51.052;13.754;2023-05-13T02:19:15;739.38;;;661.20;;
75062;SDS011;63981;51.052;13.754;2023-05-13T02:21:41;732.33;;;654.88;;
75062;SDS011;63981;51.052;13.754;2023-05-13T02:24:08;735.45;;;657.55;;
75062;SDS011;63981;51.052;13.754;2023-05-13T02:26:34;734.50;;;657.40;;
75062;SDS011;63981;51.052;13.754;2023-05-13T02:29:00;734.03;;;656.22;;
75062;SDS011;63981;51.052;13.754;2023-05-13T02:31:26;735.85;;;659.13;;
75062;SDS011;63981;51.052;13.754;2023-05-13T02:33:52;733.13;;;656.58;;
75062;SDS011;63981;51.052;13.754;2023-05-13T02:36:19;733.47;;;656.25;;
75062;SDS011;63981;51.052;13.754;2023-05-13T02:38:45;735.38;;;657.78;;
75062;SDS011;63981;51.052;13.754;2023-05-13T02:41:13;735.92;;;659.13;;
75062;SDS011;63981;51.052;13.754;2023-05-13T02:43:38;732.75;;;656.35;;
75062;SDS011;63981;51.052;13.754;2023-05-13T02:46:05;732.97;;;656.60;;
75062;SDS011;63981;51.052;13.754;2023-05-13T02:48:32;737.80;;;660.08;;
75062;SDS011;63981;51.052;13.754;2023-05-13T02:50:59;735.20;;;658.78;;
75062;SDS011;63981;51.052;13.754;2023-05-13T02:53:25;735.65;;;658.22;;
75062;SDS011;63981;51.052;13.754;2023-05-13T02:55:55;732.35;;;655.40;;
75062;SDS011;63981;51.052;13.754;2023-05-13T02:58:24;736.00;;;658.88;;
75062;SDS011;63981;51.052;13.754;2023-05-13T03:00:51;734.15;;;657.75;;
75062;SDS011;63981;51.052;13.754;2023-05-13T03:03:17;739.33;;;661.92;;
75062;SDS011;63981;51.052;13.754;2023-05-13T03:05:42;737.78;;;660.45;;
75062;SDS011;63981;51.052;13.754;2023-05-13T03:08:08;735.22;;;658.92;;
75062;SDS011;63981;51.052;13.754;2023-05-13T03:10:34;731.95;;;655.55;;
75062;SDS011;63981;51.052;13.754;2023-05-13T03:13:00;738.67;;;661.17;;
75062;SDS011;63981;51.052;13.754;2023-05-13T03:15:26;736.70;;;660.13;;
75062;SDS011;63981;51.052;13.754;2023-05-13T03:17:51;740.33;;;663.05;;
75062;SDS011;63981;51.052;13.754;2023-05-13T03:20:19;735.47;;;658.95;;
75062;SDS011;63981;51.052;13.754;2023-05-13T03:22:45;733.42;;;657.63;;
75062;SDS011;63981;51.052;13.754;2023-05-13T03:25:11;732.33;;;656.45;;
75062;SDS011;63981;51.052;13.754;2023-05-13T03:27:41;731.63;;;656.03;;
75062;SDS011;63981;51.052;13.754;2023-05-13T03:30:09;730.80;;;655.40;;
75062;SDS011;63981;51.052;13.754;2023-05-13T03:32:43;734.20;;;658.50;;
75062;SDS011;63981;51.052;13.754;2023-05-13T03:35:09;736.00;;;659.88;;
75062;SDS011;63981;51.052;13.754;2023-05-13T03:37:36;731.83;;;655.92;;
75062;SDS011;63981;51.052;13.754;2023-05-13T03:40:03;737.22;;;660.45;;
75062;SDS011;63981;51.052;13.754;2023-05-13T03:42:29;736.50;;;659.80;;
75062;SDS011;63981;51.052;13.754;2023-05-13T03:44:57;734.30;;;657.92;;
75062;SDS011;63981;51.052;13.754;2023-05-13T03:47:23;732.65;;;656.88;;
75062;SDS011;63981;51.052;13.754;2023-05-13T03:49:49;737.38;;;660.67;;
75062;SDS011;63981;51.052;13.754;2023-05-13T03:52:15;732.40;;;656.70;;
75062;SDS011;63981;51.052;13.754;2023-05-13T03:54:41;730.60;;;655.20;;
75062;SDS011;63981;51.052;13.754;2023-05-13T03:57:07;733.88;;;658.15;;
75062;SDS011;63981;51.052;13.754;2023-05-13T03:59:33;730.75;;;655.28;;
75062;SDS011;63981;51.052;13.754;2023-05-13T04:01:59;728.50;;;653.10;;
75062;SDS011;63981;51.052;13.754;2023-05-13T04:04:25;732.13;;;655.72;;
75062;SDS011;63981;51.052;13.754;2023-05-13T04:06:51;733.10;;;657.22;;
75062;SDS011;63981;51.052;13.754;2023-05-13T04:09:17;732.35;;;655.78;;
75062;SDS011;63981;51.052;13.754;2023-05-13T04:11:42;728.72;;;653.50;;
75062;SDS011;63981;51.052;13.754;2023-05-13T04:14:08;730.65;;;654.40;;
75062;SDS011;63981;51.052;13.754;2023-05-13T04:16:34;727.33;;;651.75;;
75062;SDS011;63981;51.052;13.754;2023-05-13T04:19:01;736.15;;;659.40;;
75062;SDS011;63981;51.052;13.754;2023-05-13T04:21:28;738.95;;;663.03;;
75062;SDS011;63981;51.052;13.754;2023-05-13T04:23:54;728.30;;;653.05;;
75062;SDS011;63981;51.052;13.754;2023-05-13T04:26:20;728.97;;;653.10;;
75062;SDS011;63981;51.052;13.754;2023-05-13T04:28:47;726.38;;;651.58;;
75062;SDS011;63981;51.052;13.754;2023-05-13T04:31:13;727.15;;;651.88;;
75062;SDS011;63981;51.052;13.754;2023-05-13T04:33:39;726.20;;;651.28;;
75062;SDS011;63981;51.052;13.754;2023-05-13T04:36:05;730.40;;;653.92;;
75062;SDS011;63981;51.052;13.754;2023-05-13T04:38:32;728.22;;;651.92;;
75062;SDS011;63981;51.052;13.754;2023-05-13T04:40:58;730.78;;;654.15;;
75062;SDS011;63981;51.052;13.754;2023-05-13T04:43:33;732.03;;;655.20;;
75062;SDS011;63981;51.052;13.754;2023-05-13T04:46:00;730.08;;;654.38;;
75062;SDS011;63981;51.052;13.754;2023-05-13T04:48:25;732.08;;;655.80;;
75062;SDS011;63981;51.052;13.754;2023-05-13T04:50:52;731.33;;;654.65;;
75062;SDS011;63981;51.052;13.754;2023-05-13T04:53:18;733.20;;;656.83;;
75062;SDS011;63981;51.052;13.754;2023-05-13T04:55:46;734.40;;;657.30;;
75062;SDS011;63981;51.052;13.754;2023-05-13T04:58:13;733.13;;;655.58;;
75062;SDS011;63981;51.052;13.754;2023-05-13T05:00:39;728.42;;;652.42;;
75062;SDS011;63981;51.052;13.754;2023-05-13T05:03:05;728.47;;;652.13;;
75062;SDS011;63981;51.052;13.754;2023-05-13T05:05:31;729.22;;;652.65;;
75062;SDS011;63981;51.052;13.754;2023-05-13T05:07:57;730.58;;;654.30;;
75062;SDS011;63981;51.052;13.754;2023-05-13T05:10:22;730.55;;;654.28;;
75062;SDS011;63981;51.052;13.754;2023-05-13T05:12:55;733.13;;;657.00;;
75062;SDS011;63981;51.052;13.754;2023-05-13T05:15:22;732.75;;;655.55;;
75062;SDS011;63981;51.052;13.754;2023-05-13T05:17:51;732.35;;;656.25;;
75062;SDS011;63981;51.052;13.754;2023-05-13T05:20:17;730.42;;;653.55;;
75062;SDS011;63981;51.052;13.754;2023-05-13T05:22:45;730.78;;;654.85;;
75062;SDS011;63981;51.052;13.754;2023-05-13T05:25:13;730.88;;;653.53;;
75062;SDS011;63981;51.052;13.754;2023-05-13T05:27:44;732.65;;;654.80;;
75062;SDS011;63981;51.052;13.754;2023-05-13T05:30:10;735.08;;;656.88;;
75062;SDS011;63981;51.052;13.754;2023-05-13T05:32:37;733.40;;;655.08;;
75062;SDS011;63981;51.052;13.754;2023-05-13T05:35:04;732.83;;;654.17;;
75062;SDS011;63981;51.052;13.754;2023-05-13T05:37:34;736.08;;;657.88;;
75062;SDS011;63981;51.052;13.754;2023-05-13T05:40:01;733.60;;;655.35;;
75062;SDS011;63981;51.052;13.754;2023-05-13T05:42:28;735.15;;;656.30;;
75062;SDS011;63981;51.052;13.754;2023-05-13T05:44:54;734.80;;;655.22;;
75062;SDS011;63981;51.052;13.754;2023-05-13T05:47:23;731.95;;;653.70;;
75062;SDS011;63981;51.052;13.754;2023-05-13T05:49:49;731.33;;;652.72;;
75062;SDS011;63981;51.052;13.754;2023-05-13T05:52:15;739.47;;;659.10;;
75062;SDS011;63981;51.052;13.754;2023-05-13T05:54:41;733.55;;;653.60;;
75062;SDS011;63981;51.052;13.754;2023-05-13T05:57:06;737.35;;;657.03;;
75062;SDS011;63981;51.052;13.754;2023-05-13T05:59:32;733.30;;;653.90;;
75062;SDS011;63981;51.052;13.754;2023-05-13T06:01:58;735.83;;;655.17;;
75062;SDS011;63981;51.052;13.754;2023-05-13T06:04:23;735.28;;;654.30;;
75062;SDS011;63981;51.052;13.754;2023-05-13T06:06:50;732.72;;;652.15;;
75062;SDS011;63981;51.052;13.754;2023-05-13T06:09:16;739.85;;;655.47;;
75062;SDS011;63981;51.052;13.754;2023-05-13T06:11:42;733.78;;;650.50;;
75062;SDS011;63981;51.052;13.754;2023-05-13T06:14:08;738.47;;;653.92;;
75062;SDS011;63981;51.052;13.754;2023-05-13T06:16:34;749.00;;;653.45;;
75062;SDS011;63981;51.052;13.754;2023-05-13T06:19:00;747.20;;;652.35;;
75062;SDS011;63981;51.052;13.754;2023-05-13T06:21:26;740.65;;;651.60;;
75062;SDS011;63981;51.052;13.754;2023-05-13T06:23:52;747.50;;;650.88;;
75062;SDS011;63981;51.052;13.754;2023-05-13T06:26:19;750.53;;;651.10;;
75062;SDS011;63981;51.052;13.754;2023-05-13T06:28:45;754.17;;;649.15;;
75062;SDS011;63981;51.052;13.754;2023-05-13T06:31:11;758.83;;;648.92;;
75062;SDS011;63981;51.052;13.754;2023-05-13T06:33:37;756.85;;;647.95;;
75062;SDS011;63981;51.052;13.754;2023-05-13T06:36:03;754.65;;;647.83;;
75062;SDS011;63981;51.052;13.754;2023-05-13T06:38:29;755.70;;;644.70;;
75062;SDS011;63981;51.052;13.754;2023-05-13T06:40:59;759.45;;;644.47;;
75062;SDS011;63981;51.052;13.754;2023-05-13T06:43:30;767.45;;;641.75;;
75062;SDS011;63981;51.052;13.754;2023-05-13T06:45:57;770.45;;;645.90;;
75062;SDS011;63981;51.052;13.754;2023-05-13T06:48:26;770.85;;;645.72;;
75062;SDS011;63981;51.052;13.754;2023-05-13T06:50:52;760.90;;;644.17;;
75062;SDS011;63981;51.052;13.754;2023-05-13T06:53:18;765.63;;;642.13;;
75062;SDS011;63981;51.052;13.754;2023-05-13T06:55:44;765.15;;;638.33;;
75062;SDS011;63981;51.052;13.754;2023-05-13T06:58:10;762.70;;;641.53;;
75062;SDS011;63981;51.052;13.754;2023-05-13T07:00:36;767.78;;;640.58;;
75062;SDS011;63981;51.052;13.754;2023-05-13T07:03:06;777.00;;;642.03;;
75062;SDS011;63981;51.052;13.754;2023-05-13T07:05:35;770.55;;;642.40;;
75062;SDS011;63981;51.052;13.754;2023-05-13T07:08:02;774.35;;;639.10;;
75062;SDS011;63981;51.052;13.754;2023-05-13T07:10:31;776.08;;;640.17;;
75062;SDS011;63981;51.052;13.754;2023-05-13T07:12:59;779.10;;;638.30;;
75062;SDS011;63981;51.052;13.754;2023-05-13T07:15:25;783.15;;;637.60;;
75062;SDS011;63981;51.052;13.754;2023-05-13T07:17:51;795.45;;;641.58;;
75062;SDS011;63981;51.052;13.754;2023-05-13T07:20:17;783.63;;;628.25;;
75062;SDS011;63981;51.052;13.754;2023-05-13T07:22:47;790.22;;;623.33;;
75062;SDS011;63981;51.052;13.754;2023-05-13T07:25:14;813.35;;;638.60;;
75062;SDS011;63981;51.052;13.754;2023-05-13T07:27:45;818.22;;;634.95;;
75062;SDS011;63981;51.052;13.754;2023-05-13T07:30:12;817.55;;;628.95;;
75062;SDS011;63981;51.052;13.754;2023-05-13T07:32:38;824.42;;;629.58;;
75062;SDS011;63981;51.052;13.754;2023-05-13T07:35:05;845.03;;;632.47;;
75062;SDS011;63981;51.052;13.754;2023-05-13T07:37:31;863.72;;;643.13;;
75062;SDS011;63981;51.052;13.754;2023-05-13T07:39:57;866.08;;;637.63;;
75062;SDS011;63981;51.052;13.754;2023-05-13T07:42:23;868.35;;;633.45;;
75062;SDS011;63981;51.052;13.754;2023-05-13T07:44:49;864.83;;;628.75;;
75062;SDS011;63981;51.052;13.754;2023-05-13T07:47:15;876.22;;;628.60;;
75062;SDS011;63981;51.052;13.754;2023-05-13T07:49:41;875.80;;;627.00;;
75062;SDS011;63981;51.052;13.754;2023-05-13T07:52:06;891.50;;;629.10;;
75062;SDS011;63981;51.052;13.754;2023-05-13T07:54:32;897.15;;;629.65;;
75062;SDS011;63981;51.052;13.754;2023-05-13T07:56:58;902.08;;;632.20;;
75062;SDS011;63981;51.052;13.754;2023-05-13T07:59:26;918.40;;;640.35;;
75062;SDS011;63981;51.052;13.754;2023-05-13T08:01:52;929.42;;;647.22;;
75062;SDS011;63981;51.052;13.754;2023-05-13T08:04:18;909.22;;;635.13;;
75062;SDS011;63981;51.052;13.754;2023-05-13T08:06:44;932.90;;;641.72;;
75062;SDS011;63981;51.052;13.754;2023-05-13T08:09:10;972.03;;;674.60;;
75062;SDS011;63981;51.052;13.754;2023-05-13T08:11:36;984.58;;;680.42;;
75062;SDS011;63981;51.052;13.754;2023-05-13T08:14:03;992.92;;;678.80;;
75062;SDS011;63981;51.052;13.754;2023-05-13T08:16:33;990.92;;;675.83;;
75062;SDS011;63981;51.052;13.754;2023-05-13T08:19:00;991.40;;;670.85;;
75062;SDS011;63981;51.052;13.754;2023-05-13T08:21:26;996.35;;;665.92;;
75062;SDS011;63981;51.052;13.754;2023-05-13T08:23:52;1008.25;;;670.10;;
75062;SDS011;63981;51.052;13.754;2023-05-13T08:26:18;1008.13;;;673.72;;
75062;SDS011;63981;51.052;13.754;2023-05-13T08:28:44;1003.53;;;662.28;;
75062;SDS011;63981;51.052;13.754;2023-05-13T08:31:10;988.42;;;653.45;;
75062;SDS011;63981;51.052;13.754;2023-05-13T08:33:37;993.03;;;649.60;;
75062;SDS011;63981;51.052;13.754;2023-05-13T08:36:04;988.15;;;638.28;;
75062;SDS011;63981;51.052;13.754;2023-05-13T08:38:30;998.95;;;643.72;;
75062;SDS011;63981;51.052;13.754;2023-05-13T08:40:58;987.38;;;630.75;;
75062;SDS011;63981;51.052;13.754;2023-05-13T08:43:24;968.78;;;616.15;;
75062;SDS011;63981;51.052;13.754;2023-05-13T08:45:55;943.75;;;595.05;;
75062;SDS011;63981;51.052;13.754;2023-05-13T08:48:27;904.00;;;568.65;;
75062;SDS011;63981;51.052;13.754;2023-05-13T08:50:53;881.90;;;550.22;;
75062;SDS011;63981;51.052;13.754;2023-05-13T08:53:19;881.67;;;547.10;;
75062;SDS011;63981;51.052;13.754;2023-05-13T08:55:47;891.97;;;549.25;;
75062;SDS011;63981;51.052;13.754;2023-05-13T08:58:14;853.65;;;530.83;;
75062;SDS011;63981;51.052;13.754;2023-05-13T09:00:40;1122.60;;;686.05;;
75062;SDS011;63981;51.052;13.754;2023-05-13T09:03:06;988.92;;;602.72;;
75062;SDS011;63981;51.052;13.754;2023-05-13T09:05:33;977.10;;;596.17;;
75062;SDS011;63981;51.052;13.754;2023-05-13T09:10:29;1087.80;;;671.95;;
75062;SDS011;63981;51.052;13.754;2023-05-13T09:12:55;1050.82;;;652.65;;
75062;SDS011;63981;51.052;13.754;2023-05-13T09:15:22;1062.75;;;662.20;;
75062;SDS011;63981;51.052;13.754;2023-05-13T09:20:23;1060.32;;;667.22;;
75062;SDS011;63981;51.052;13.754;2023-05-13T09:22:56;1062.18;;;667.80;;
75062;SDS011;63981;51.052;13.754;2023-05-13T09:25:24;1055.78;;;668.60;;
75062;SDS011;63981;51.052;13.754;2023-05-13T09:27:52;1046.80;;;663.33;;
75062;SDS011;63981;51.052;13.754;2023-05-13T09:30:22;1050.60;;;668.45;;
75062;SDS011;63981;51.052;13.754;2023-05-13T09:35:31;1030.57;;;609.42;;
75062;SDS011;63981;51.052;13.754;2023-05-13T09:37:58;1224.40;;;680.80;;
75062;SDS011;63981;51.052;13.754;2023-05-13T09:40:24;1071.60;;;646.63;;
75062;SDS011;63981;51.052;13.754;2023-05-13T09:42:50;1057.63;;;636.42;;
75062;SDS011;63981;51.052;13.754;2023-05-13T09:45:16;1188.90;;;729.15;;
75062;SDS011;63981;51.052;13.754;2023-05-13T09:47:42;1018.13;;;618.65;;
75062;SDS011;63981;51.052;13.754;2023-05-13T09:50:10;1266.18;;;783.22;;
75062;SDS011;63981;51.052;13.754;2023-05-13T09:52:37;1201.43;;;723.30;;
75062;SDS011;63981;51.052;13.754;2023-05-13T09:55:03;1169.03;;;702.38;;
75062;SDS011;63981;51.052;13.754;2023-05-13T09:57:33;1114.05;;;665.00;;
75062;SDS011;63981;51.052;13.754;2023-05-13T10:00:00;1050.00;;;624.83;;
75062;SDS011;63981;51.052;13.754;2023-05-13T10:02:36;1078.43;;;642.88;;
75062;SDS011;63981;51.052;13.754;2023-05-13T10:05:03;1061.40;;;640.25;;
75062;SDS011;63981;51.052;13.754;2023-05-13T10:07:30;1042.53;;;630.40;;
75062;SDS011;63981;51.052;13.754;2023-05-13T10:10:00;1034.22;;;628.97;;
75062;SDS011;63981;51.052;13.754;2023-05-13T10:12:29;1034.97;;;627.47;;
75062;SDS011;63981;51.052;13.754;2023-05-13T10:15:00;1028.70;;;628.90;;
75062;SDS011;63981;51.052;13.754;2023-05-13T10:17:27;1023.88;;;624.67;;
75062;SDS011;63981;51.052;13.754;2023-05-13T10:19:54;1024.28;;;626.13;;
75062;SDS011;63981;51.052;13.754;2023-05-13T10:22:30;1020.80;;;624.28;;
75062;SDS011;63981;51.052;13.754;2023-05-13T10:24:59;1011.10;;;620.55;;
75062;SDS011;63981;51.052;13.754;2023-05-13T10:27:28;1018.03;;;622.33;;
75062;SDS011;63981;51.052;13.754;2023-05-13T10:29:55;999.20;;;613.92;;
75062;SDS011;63981;51.052;13.754;2023-05-13T10:34:50;1004.90;;;611.25;;
75062;SDS011;63981;51.052;13.754;2023-05-13T10:40:48;1032.93;;;631.70;;
75062;SDS011;63981;51.052;13.754;2023-05-13T10:43:23;1015.13;;;623.60;;
75062;SDS011;63981;51.052;13.754;2023-05-13T10:45:57;1020.80;;;627.40;;
75062;SDS011;63981;51.052;13.754;2023-05-13T10:48:24;1012.53;;;623.65;;
75062;SDS011;63981;51.052;13.754;2023-05-13T10:53:21;1028.43;;;638.15;;
75062;SDS011;63981;51.052;13.754;2023-05-13T10:55:53;1010.55;;;631.17;;
75062;SDS011;63981;51.052;13.754;2023-05-13T10:58:20;1027.13;;;644.53;;
75062;SDS011;63981;51.052;13.754;2023-05-13T11:00:52;1037.18;;;642.13;;
75062;SDS011;63981;51.052;13.754;2023-05-13T11:05:44;1017.33;;;632.78;;
75062;SDS011;63981;51.052;13.754;2023-05-13T11:08:31;1015.22;;;632.40;;
75062;SDS011;63981;51.052;13.754;2023-05-13T11:11:16;1009.15;;;635.78;;
75062;SDS011;63981;51.052;13.754;2023-05-13T11:13:51;1011.83;;;640.33;;
75062;SDS011;63981;51.052;13.754;2023-05-13T11:16:19;995.15;;;637.72;;
75062;SDS011;63981;51.052;13.754;2023-05-13T11:18:47;971.08;;;633.35;;
75062;SDS011;63981;51.052;13.754;2023-05-13T11:21:13;967.00;;;634.60;;
75062;SDS011;63981;51.052;13.754;2023-05-13T11:23:49;955.72;;;628.95;;
75062;SDS011;63981;51.052;13.754;2023-05-13T11:26:16;960.00;;;630.00;;
75062;SDS011;63981;51.052;13.754;2023-05-13T11:28:56;947.08;;;625.60;;
75062;SDS011;63981;51.052;13.754;2023-05-13T11:34:13;950.10;;;630.20;;
75062;SDS011;63981;51.052;13.754;2023-05-13T11:36:44;941.55;;;627.15;;
75062;SDS011;63981;51.052;13.754;2023-05-13T11:39:18;941.30;;;626.97;;
75062;SDS011;63981;51.052;13.754;2023-05-13T11:41:46;943.13;;;626.20;;
75062;SDS011;63981;51.052;13.754;2023-05-13T11:44:15;938.63;;;625.55;;
75062;SDS011;63981;51.052;13.754;2023-05-13T11:46:52;928.55;;;620.35;;
75062;SDS011;63981;51.052;13.754;2023-05-13T11:51:57;933.50;;;620.58;;
75062;SDS011;63981;51.052;13.754;2023-05-13T11:54:24;938.85;;;619.08;;
75062;SDS011;63981;51.052;13.754;2023-05-13T11:56:50;942.10;;;621.70;;
75062;SDS011;63981;51.052;13.754;2023-05-13T11:59:16;938.03;;;623.58;;
75062;SDS011;63981;51.052;13.754;2023-05-13T12:01:42;939.75;;;621.17;;
75062;SDS011;63981;51.052;13.754;2023-05-13T12:04:08;938.22;;;621.08;;
75062;SDS011;63981;51.052;13.754;2023-05-13T12:06:33;937.58;;;620.72;;
75062;SDS011;63981;51.052;13.754;2023-05-13T12:09:03;930.80;;;618.90;;
75062;SDS011;63981;51.052;13.754;2023-05-13T12:11:30;925.17;;;617.58;;
75062;SDS011;63981;51.052;13.754;2023-05-13T12:13:56;938.40;;;625.60;;
75062;SDS011;63981;51.052;13.754;2023-05-13T12:16:22;928.17;;;619.58;;
75062;SDS011;63981;51.052;13.754;2023-05-13T12:18:57;930.70;;;620.80;;
75062;SDS011;63981;51.052;13.754;2023-05-13T12:21:24;924.70;;;619.72;;
75062;SDS011;63981;51.052;13.754;2023-05-13T12:23:52;929.45;;;620.53;;
75062;SDS011;63981;51.052;13.754;2023-05-13T12:26:18;923.33;;;621.97;;
75062;SDS011;63981;51.052;13.754;2023-05-13T12:28:47;918.30;;;620.90;;
75062;SDS011;63981;51.052;13.754;2023-05-13T12:31:14;945.30;;;632.00;;
75062;SDS011;63981;51.052;13.754;2023-05-13T12:33:42;940.65;;;634.25;;
75062;SDS011;63981;51.052;13.754;2023-05-13T12:41:33;961.28;;;660.30;;
75062;SDS011;63981;51.052;13.754;2023-05-13T12:44:11;938.08;;;646.30;;
75062;SDS011;63981;51.052;13.754;2023-05-13T12:46:49;912.45;;;638.47;;
75062;SDS011;63981;51.052;13.754;2023-05-13T12:49:18;895.10;;;632.97;;
75062;SDS011;63981;51.052;13.754;2023-05-13T12:51:50;888.45;;;629.78;;
75062;SDS011;63981;51.052;13.754;2023-05-13T12:54:16;880.35;;;626.45;;
75062;SDS011;63981;51.052;13.754;2023-05-13T12:56:42;881.60;;;624.03;;
75062;SDS011;63981;51.052;13.754;2023-05-13T12:59:09;880.08;;;621.25;;
75062;SDS011;63981;51.052;13.754;2023-05-13T13:01:35;878.30;;;616.42;;
75062;SDS011;63981;51.052;13.754;2023-05-13T13:04:01;889.05;;;616.42;;
75062;SDS011;63981;51.052;13.754;2023-05-13T13:06:30;898.33;;;616.00;;
75062;SDS011;63981;51.052;13.754;2023-05-13T13:08:56;929.67;;;635.80;;
75062;SDS011;63981;51.052;13.754;2023-05-13T13:11:22;942.33;;;639.72;;
75062;SDS011;63981;51.052;13.754;2023-05-13T13:13:48;935.88;;;637.58;;
75062;SDS011;63981;51.052;13.754;2023-05-13T13:16:15;936.63;;;635.33;;
75062;SDS011;63981;51.052;13.754;2023-05-13T13:18:41;944.03;;;637.85;;
75062;SDS011;63981;51.052;13.754;2023-05-13T13:21:07;945.05;;;637.92;;
75062;SDS011;63981;51.052;13.754;2023-05-13T13:23:34;952.50;;;638.05;;
75062;SDS011;63981;51.052;13.754;2023-05-13T13:26:00;955.90;;;644.65;;
75062;SDS011;63981;51.052;13.754;2023-05-13T13:28:26;960.08;;;646.67;;
75062;SDS011;63981;51.052;13.754;2023-05-13T13:30:52;973.30;;;658.75;;
75062;SDS011;63981;51.052;13.754;2023-05-13T13:33:19;947.13;;;644.40;;
75062;SDS011;63981;51.052;13.754;2023-05-13T13:35:45;950.72;;;645.15;;
75062;SDS011;63981;51.052;13.754;2023-05-13T13:38:13;940.45;;;641.72;;
75062;SDS011;63981;51.052;13.754;2023-05-13T13:40:41;931.58;;;638.92;;
75062;SDS011;63981;51.052;13.754;2023-05-13T13:43:07;928.78;;;638.88;;
75062;SDS011;63981;51.052;13.754;2023-05-13T13:45:33;932.65;;;640.15;;
75062;SDS011;63981;51.052;13.754;2023-05-13T13:48:00;921.55;;;636.38;;
75062;SDS011;63981;51.052;13.754;2023-05-13T13:50:26;920.33;;;635.60;;
75062;SDS011;63981;51.052;13.754;2023-05-13T13:52:54;923.13;;;637.85;;
75062;SDS011;63981;51.052;13.754;2023-05-13T13:55:21;925.38;;;634.53;;
75062;SDS011;63981;51.052;13.754;2023-05-13T13:57:48;934.65;;;642.55;;
75062;SDS011;63981;51.052;13.754;2023-05-13T14:00:14;920.90;;;634.55;;
75062;SDS011;63981;51.052;13.754;2023-05-13T14:02:48;911.83;;;631.70;;
75062;SDS011;63981;51.052;13.754;2023-05-13T14:05:14;908.25;;;629.03;;
75062;SDS011;63981;51.052;13.754;2023-05-13T14:07:40;909.08;;;629.13;;
75062;SDS011;63981;51.052;13.754;2023-05-13T14:10:06;904.67;;;629.75;;
75062;SDS011;63981;51.052;13.754;2023-05-13T14:12:33;900.78;;;628.47;;
75062;SDS011;63981;51.052;13.754;2023-05-13T14:15:00;897.45;;;626.85;;
75062;SDS011;63981;51.052;13.754;2023-05-13T14:17:26;886.65;;;625.40;;
75062;SDS011;63981;51.052;13.754;2023-05-13T14:19:52;880.20;;;624.30;;
75062;SDS011;63981;51.052;13.754;2023-05-13T14:22:20;882.10;;;624.47;;